createdAt,value
2019-01-14T00:00:30.092Z,84.45
2019-01-14T00:02:59.430Z,84.58
2019-01-14T00:05:28.120Z,84.84
2019-01-14T00:07:56.793Z,85.34
2019-01-14T00:10:25.633Z,85.62
2019-01-14T00:12:54.321Z,85.82
2019-01-14T00:15:23.005Z,85.83
2019-01-14T00:17:52.041Z,85.52
2019-01-14T00:20:20.721Z,85.44
2019-01-14T00:22:49.394Z,85.46
2019-01-14T00:25:18.235Z,85.81
2019-01-14T00:27:46.930Z,86.20
2019-01-14T00:30:17.907Z,86.02
2019-01-14T00:32:46.647Z,86.70
2019-01-14T00:35:15.324Z,86.70
2019-01-14T00:37:43.938Z,86.53
2019-01-14T00:40:15.259Z,85.00
2019-01-14T00:42:43.942Z,85.85
2019-01-14T00:45:12.811Z,85.85
2019-01-14T00:47:41.657Z,86.82
2019-01-14T00:50:13.143Z,86.82
2019-01-14T00:52:41.828Z,87.15
2019-01-14T00:55:11.362Z,86.45
2019-01-14T00:57:40.051Z,85.13
2019-01-14T01:00:17.338Z,85.75
2019-01-14T01:02:46.019Z,86.95
2019-01-14T01:05:14.799Z,87.58
2019-01-14T01:07:43.640Z,88.29
2019-01-14T01:10:15.028Z,88.45
2019-01-14T01:12:43.816Z,88.63
2019-01-14T01:15:15.551Z,89.11
2019-01-14T01:17:44.835Z,89.44
2019-01-14T01:20:16.834Z,89.36
2019-01-14T01:22:46.093Z,89.58
2019-01-14T01:25:14.984Z,89.47
2019-01-14T01:27:43.665Z,89.39
2019-01-14T01:30:15.419Z,89.78
2019-01-14T01:32:44.111Z,89.79
2019-01-14T01:35:14.106Z,90.08
2019-01-14T01:37:42.825Z,90.17
2019-01-14T01:40:14.480Z,89.83
2019-01-14T01:42:43.164Z,90.02
2019-01-14T01:45:12.533Z,90.26
2019-01-14T01:47:41.440Z,90.54
2019-01-14T01:50:15.110Z,90.49
2019-01-14T01:52:43.836Z,90.86
2019-01-14T01:55:13.423Z,91.91
2019-01-14T01:57:42.115Z,92.03
2019-01-14T02:00:16.676Z,92.03
2019-01-14T02:02:45.356Z,91.88
2019-01-14T02:05:14.842Z,92.05
2019-01-14T02:07:43.588Z,92.13
2019-01-14T02:10:15.236Z,92.40
2019-01-14T02:12:43.915Z,92.37
2019-01-14T02:15:15.172Z,92.15
2019-01-14T02:17:43.857Z,91.86
2019-01-14T02:20:15.034Z,91.48
2019-01-14T02:22:43.846Z,91.38
2019-01-14T02:25:14.145Z,91.87
2019-01-14T02:27:42.832Z,91.85
2019-01-14T02:30:19.748Z,92.27
2019-01-14T02:32:48.411Z,92.51
2019-01-14T02:35:17.097Z,92.69
2019-01-14T02:37:46.413Z,92.78
2019-01-14T02:40:20.113Z,92.78
2019-01-14T02:42:48.801Z,93.01
2019-01-14T02:45:17.825Z,93.45
2019-01-14T02:47:46.512Z,93.33
2019-01-14T02:50:15.997Z,94.45
2019-01-14T02:52:44.719Z,94.45
2019-01-14T02:55:13.924Z,94.09
2019-01-14T02:57:42.585Z,94.09
2019-01-14T03:00:20.286Z,94.03
2019-01-14T03:02:48.980Z,94.21
2019-01-14T03:05:17.662Z,93.95
2019-01-14T03:07:46.811Z,93.95
2019-01-14T03:10:15.603Z,93.67
2019-01-14T03:12:44.284Z,93.38
2019-01-14T03:15:15.325Z,91.88
2019-01-14T03:17:44.014Z,91.88
2019-01-14T03:20:15.664Z,91.94
2019-01-14T03:22:44.826Z,92.17
2019-01-14T03:25:14.722Z,92.26
2019-01-14T03:27:43.338Z,92.51
2019-01-14T03:30:14.947Z,92.51
2019-01-14T03:32:43.641Z,92.85
2019-01-14T03:35:12.409Z,92.78
2019-01-14T03:37:41.277Z,93.09
2019-01-14T03:40:12.954Z,92.91
2019-01-14T03:42:41.639Z,92.98
2019-01-14T03:45:11.893Z,93.02
2019-01-14T03:47:40.564Z,92.89
2019-01-14T03:50:12.880Z,93.54
2019-01-14T03:52:41.568Z,93.54
2019-01-14T03:55:10.248Z,93.28
2019-01-14T03:57:39.222Z,93.14
2019-01-14T04:00:11.142Z,93.06
2019-01-14T04:02:39.832Z,93.19
2019-01-14T04:05:10.180Z,92.83
2019-01-14T04:07:39.105Z,92.83
2019-01-14T04:10:10.996Z,92.23
2019-01-14T04:12:39.681Z,91.79
2019-01-14T04:15:11.015Z,92.35
2019-01-14T04:17:39.698Z,92.35
2019-01-14T04:20:11.285Z,92.15
2019-01-14T04:22:40.032Z,92.62
2019-01-14T04:25:09.820Z,92.80
2019-01-14T04:27:38.506Z,92.80
2019-01-14T04:30:19.174Z,92.80
2019-01-14T04:32:47.866Z,92.58
2019-01-14T04:35:17.039Z,91.45
2019-01-14T04:37:45.869Z,90.45
2019-01-14T04:40:16.058Z,90.45
2019-01-14T04:42:44.745Z,91.25
2019-01-14T04:45:15.389Z,91.36
2019-01-14T04:47:44.077Z,91.36
2019-01-14T04:50:15.814Z,91.44
2019-01-14T04:52:44.577Z,91.75
2019-01-14T04:55:13.371Z,91.75
2019-01-14T04:57:42.039Z,90.85
2019-01-14T05:00:19.619Z,91.07
2019-01-14T05:02:48.314Z,91.07
2019-01-14T05:05:17.703Z,91.76
2019-01-14T05:07:46.474Z,92.03
2019-01-14T05:10:17.870Z,93.88
2019-01-14T05:12:46.656Z,93.88
2019-01-14T05:15:15.433Z,95.16
2019-01-14T05:17:44.126Z,95.16
2019-01-14T05:20:19.271Z,93.49
2019-01-14T05:22:48.385Z,92.65
2019-01-14T05:25:17.080Z,91.66
2019-01-14T05:27:45.766Z,91.79
2019-01-14T05:30:17.050Z,91.79
2019-01-14T05:32:45.735Z,91.75
2019-01-14T05:35:14.821Z,89.96
2019-01-14T05:37:43.553Z,88.15
2019-01-14T05:40:15.280Z,88.15
2019-01-14T05:42:43.978Z,88.91
2019-01-14T05:45:13.117Z,88.74
2019-01-14T05:47:41.799Z,90.14
2019-01-14T05:50:13.787Z,90.20
2019-01-14T05:52:42.513Z,88.31
2019-01-14T05:55:12.510Z,88.31
2019-01-14T05:57:41.197Z,88.55
2019-01-14T06:00:21.835Z,89.26
2019-01-14T06:02:50.518Z,89.05
2019-01-14T06:05:19.216Z,88.97
2019-01-14T06:07:47.923Z,88.97
2019-01-14T06:10:16.616Z,88.71
2019-01-14T06:12:45.299Z,88.96
2019-01-14T06:15:16.003Z,88.96
2019-01-14T06:17:44.692Z,89.96
2019-01-14T06:20:16.481Z,90.34
2019-01-14T06:22:45.753Z,90.72
2019-01-14T06:25:15.561Z,91.10
2019-01-14T06:27:44.249Z,91.54
2019-01-14T06:30:24.840Z,91.86
2019-01-14T06:32:53.528Z,91.86
2019-01-14T06:35:22.209Z,91.67
2019-01-14T06:37:52.588Z,90.78
2019-01-14T06:40:21.959Z,90.22
2019-01-14T06:42:50.638Z,90.12
2019-01-14T06:45:19.564Z,90.03
2019-01-14T06:47:48.247Z,89.44
2019-01-14T06:50:18.847Z,89.44
2019-01-14T06:52:47.561Z,89.12
2019-01-14T06:55:16.981Z,88.17
2019-01-14T06:57:45.864Z,88.82
2019-01-14T07:00:20.687Z,86.74
2019-01-14T07:02:49.383Z,86.58
2019-01-14T07:05:19.867Z,86.58
2019-01-14T07:07:48.670Z,86.11
2019-01-14T07:10:20.282Z,85.90
2019-01-14T07:12:49.010Z,84.97
2019-01-14T07:15:17.728Z,84.64
2019-01-14T07:17:46.408Z,84.50
2019-01-14T07:20:15.802Z,81.18
2019-01-14T07:22:44.540Z,80.80
2019-01-14T07:25:13.319Z,80.22
2019-01-14T07:27:41.996Z,80.51
2019-01-14T07:30:16.467Z,79.82
2019-01-14T07:32:45.151Z,79.11
2019-01-14T07:35:15.233Z,78.17
2019-01-14T07:37:47.578Z,78.50
2019-01-14T07:40:20.041Z,78.48
2019-01-14T07:42:48.736Z,74.93
2019-01-14T07:45:23.352Z,74.56
2019-01-14T07:47:52.054Z,75.47
2019-01-14T07:50:20.747Z,72.89
2019-01-14T07:52:49.683Z,72.26
2019-01-14T07:55:19.598Z,68.59
2019-01-14T07:57:48.867Z,69.54
2019-01-14T08:00:26.125Z,71.84
2019-01-14T08:02:55.214Z,73.15
2019-01-14T08:05:23.893Z,70.92
2019-01-14T08:07:52.715Z,68.05
2019-01-14T08:10:21.395Z,66.76
2019-01-14T08:12:50.076Z,67.01
2019-01-14T08:15:20.610Z,67.53
2019-01-14T08:17:49.283Z,64.50
2019-01-14T08:20:17.959Z,66.23
2019-01-14T08:22:47.126Z,65.94
2019-01-14T08:25:16.098Z,67.88
2019-01-14T08:27:47.506Z,66.89
2019-01-14T08:30:18.819Z,67.79
2019-01-14T08:32:47.494Z,65.58
2019-01-14T08:35:16.378Z,66.47
2019-01-14T08:37:45.455Z,65.66
2019-01-14T08:40:16.436Z,66.32
2019-01-14T08:42:45.119Z,66.60
2019-01-14T08:45:14.346Z,65.73
2019-01-14T08:47:43.098Z,66.53
2019-01-14T08:50:19.295Z,65.63
2019-01-14T08:52:47.978Z,63.70
2019-01-14T08:55:16.666Z,63.69
2019-01-14T08:57:45.489Z,63.26
2019-01-14T09:00:19.414Z,61.99
2019-01-14T09:02:48.088Z,60.84
2019-01-14T09:05:17.447Z,61.07
2019-01-14T09:07:46.210Z,59.12
2019-01-14T09:10:20.739Z,58.68
2019-01-14T09:12:49.546Z,60.22
2019-01-14T09:15:19.014Z,58.95
2019-01-14T09:17:47.681Z,59.09
2019-01-14T09:20:19.169Z,58.62
2019-01-14T09:22:48.256Z,58.32
2019-01-14T09:25:17.028Z,58.77
2019-01-14T09:27:45.866Z,57.52
2019-01-14T09:30:20.297Z,56.88
2019-01-14T09:32:48.973Z,55.65
2019-01-14T09:35:17.794Z,56.42
2019-01-14T09:37:46.479Z,55.80
2019-01-14T09:40:17.799Z,57.97
2019-01-14T09:42:46.621Z,57.67
2019-01-14T09:45:15.503Z,57.66
2019-01-14T09:47:44.277Z,58.49
2019-01-14T09:50:14.891Z,59.37
2019-01-14T09:52:43.757Z,57.96
2019-01-14T09:55:14.417Z,58.14
2019-01-14T09:57:43.272Z,57.79
2019-01-14T10:00:12.447Z,57.50
2019-01-14T10:02:41.226Z,57.89
2019-01-14T10:05:12.373Z,56.98
2019-01-14T10:07:41.150Z,57.91
2019-01-14T10:10:12.831Z,58.08
2019-01-14T10:12:41.682Z,57.09
2019-01-14T10:15:13.259Z,56.75
2019-01-14T10:17:42.042Z,57.47
2019-01-14T10:20:11.780Z,57.42
2019-01-14T10:22:40.452Z,58.13
2019-01-14T10:25:09.935Z,57.99
2019-01-14T10:27:39.623Z,57.93
2019-01-14T10:30:13.932Z,57.79
2019-01-14T10:32:42.606Z,57.53
2019-01-14T10:35:11.453Z,58.73
2019-01-14T10:37:40.116Z,58.93
2019-01-14T10:40:12.098Z,59.04
2019-01-14T10:42:40.865Z,59.89
2019-01-14T10:45:18.419Z,58.97
2019-01-14T10:47:47.147Z,57.84
2019-01-14T10:50:15.921Z,58.03
2019-01-14T10:52:44.609Z,57.88
2019-01-14T10:55:13.611Z,58.08
2019-01-14T10:57:42.393Z,58.03
2019-01-14T11:00:25.459Z,57.11
2019-01-14T11:02:54.321Z,55.82
2019-01-14T11:05:25.695Z,55.33
2019-01-14T11:07:54.509Z,55.43
2019-01-14T11:10:23.196Z,55.43
2019-01-14T11:12:51.879Z,55.63
2019-01-14T11:15:22.483Z,53.73
2019-01-14T11:17:51.168Z,52.48
2019-01-14T11:20:22.798Z,50.38
2019-01-14T11:22:51.517Z,49.72
2019-01-14T11:25:20.197Z,49.07
2019-01-14T11:27:49.284Z,49.46
2019-01-14T11:30:23.705Z,50.43
2019-01-14T11:32:52.389Z,50.29
2019-01-14T11:35:21.066Z,51.57
2019-01-14T11:37:50.271Z,51.33
2019-01-14T11:40:30.736Z,50.81
2019-01-14T11:42:59.564Z,52.11
2019-01-14T11:45:28.243Z,51.01
2019-01-14T11:47:56.966Z,51.74
2019-01-14T11:50:25.680Z,50.58
2019-01-14T11:52:54.362Z,49.60
2019-01-14T11:55:23.029Z,50.97
2019-01-14T11:57:51.857Z,50.17
2019-01-14T12:00:23.138Z,50.75
2019-01-14T12:02:52.313Z,50.82
2019-01-14T12:05:21.527Z,51.15
2019-01-14T12:07:50.313Z,52.23
2019-01-14T12:10:18.990Z,52.06
2019-01-14T12:12:47.806Z,52.31
2019-01-14T12:15:21.851Z,53.12
2019-01-14T12:17:50.531Z,53.36
2019-01-14T12:20:19.362Z,52.56
2019-01-14T12:22:48.150Z,52.26
2019-01-14T12:25:16.933Z,54.43
2019-01-14T12:27:45.751Z,52.71
2019-01-14T12:30:29.363Z,52.92
2019-01-14T12:32:58.109Z,52.39
2019-01-14T12:35:26.811Z,52.81
2019-01-14T12:37:55.486Z,52.89
2019-01-14T12:40:25.308Z,52.79
2019-01-14T12:42:54.095Z,52.91
2019-01-14T12:45:23.069Z,52.69
2019-01-14T12:47:54.219Z,52.33
2019-01-14T12:50:24.510Z,52.38
2019-01-14T12:52:53.288Z,51.66
2019-01-14T12:55:22.537Z,52.60
2019-01-14T12:57:51.222Z,52.99
2019-01-14T13:00:25.385Z,53.27
2019-01-14T13:02:58.316Z,53.21
2019-01-14T13:05:25.207Z,52.75
2019-01-14T13:07:53.887Z,53.53
2019-01-14T13:10:22.717Z,54.27
2019-01-14T13:12:51.408Z,54.29
2019-01-14T13:15:22.296Z,53.22
2019-01-14T13:17:51.324Z,53.68
2019-01-14T13:20:21.499Z,54.01
2019-01-14T13:22:50.288Z,54.23
2019-01-14T13:25:19.002Z,53.40
2019-01-14T13:27:47.702Z,53.87
2019-01-14T13:30:19.295Z,54.45
2019-01-14T13:32:48.004Z,54.92
2019-01-14T13:35:16.981Z,55.86
2019-01-14T13:37:45.772Z,56.92
2019-01-14T13:40:15.348Z,56.02
2019-01-14T13:42:44.023Z,57.03
2019-01-14T13:45:15.409Z,57.69
2019-01-14T13:47:44.527Z,56.08
2019-01-14T13:50:16.066Z,56.45
2019-01-14T13:52:44.750Z,56.87
2019-01-14T13:55:14.370Z,56.68
2019-01-14T13:57:43.169Z,56.61
2019-01-14T14:00:15.106Z,57.20
2019-01-14T14:02:43.757Z,57.94
2019-01-14T14:05:12.443Z,58.37
2019-01-14T14:07:41.127Z,57.83
2019-01-14T14:10:18.393Z,58.00
2019-01-14T14:12:46.981Z,58.57
2019-01-14T14:15:17.168Z,58.63
2019-01-14T14:17:46.213Z,58.73
2019-01-14T14:20:18.538Z,58.41
2019-01-14T14:22:47.719Z,58.48
2019-01-14T14:25:16.488Z,58.76
2019-01-14T14:27:45.172Z,59.45
2019-01-14T14:30:22.900Z,58.57
2019-01-14T14:32:51.580Z,58.37
2019-01-14T14:35:20.270Z,57.78
2019-01-14T14:37:48.988Z,58.30
2019-01-14T14:40:17.672Z,58.85
2019-01-14T14:42:46.359Z,59.50
2019-01-14T14:45:15.808Z,59.55
2019-01-14T14:47:44.492Z,60.09
2019-01-14T14:50:16.090Z,60.45
2019-01-14T14:52:44.870Z,60.32
2019-01-14T14:55:13.558Z,60.75
2019-01-14T14:57:42.249Z,60.83
2019-01-14T15:00:16.861Z,61.51
2019-01-14T15:02:45.546Z,62.47
2019-01-14T15:05:14.432Z,61.56
2019-01-14T15:07:43.279Z,60.65
2019-01-14T15:10:14.910Z,61.53
2019-01-14T15:12:43.592Z,62.40
2019-01-14T15:15:15.312Z,63.36
2019-01-14T15:17:43.988Z,64.37
2019-01-14T15:20:15.074Z,65.01
2019-01-14T15:22:43.882Z,66.07
2019-01-14T15:25:12.669Z,66.58
2019-01-14T15:27:41.354Z,67.61
2019-01-14T15:30:16.397Z,67.75
2019-01-14T15:32:45.078Z,67.92
2019-01-14T15:35:13.954Z,67.72
2019-01-14T15:37:42.868Z,67.51
2019-01-14T15:40:14.646Z,65.51
2019-01-14T15:42:43.316Z,65.57
2019-01-14T15:45:14.784Z,66.56
2019-01-14T15:47:43.567Z,66.71
2019-01-14T15:50:12.556Z,67.17
2019-01-14T15:52:41.400Z,67.20
2019-01-14T15:55:16.190Z,66.79
2019-01-14T15:57:44.867Z,65.43
2019-01-14T16:00:15.829Z,64.82
2019-01-14T16:02:44.802Z,66.19
2019-01-14T16:05:13.687Z,66.97
2019-01-14T16:07:42.446Z,67.80
2019-01-14T16:10:16.433Z,68.20
2019-01-14T16:12:45.106Z,68.55
2019-01-14T16:15:14.468Z,68.71
2019-01-14T16:17:43.151Z,69.02
2019-01-14T16:20:20.319Z,69.09
2019-01-14T16:22:50.335Z,68.36
2019-01-14T16:25:19.029Z,68.49
2019-01-14T16:27:47.873Z,68.71
2019-01-14T16:30:21.840Z,69.03
2019-01-14T16:32:50.543Z,68.65
2019-01-14T16:35:19.308Z,69.14
2019-01-14T16:37:48.001Z,69.25
2019-01-14T16:40:18.163Z,69.63
2019-01-14T16:42:47.309Z,69.37
2019-01-14T16:45:18.765Z,69.71
2019-01-14T16:47:47.450Z,69.69
2019-01-14T16:50:18.361Z,69.18
2019-01-14T16:52:47.052Z,68.92
2019-01-14T16:55:17.313Z,69.10
2019-01-14T16:57:46.159Z,68.02
2019-01-14T17:00:17.770Z,67.80
2019-01-14T17:02:46.453Z,68.37
2019-01-14T17:05:16.515Z,68.62
2019-01-14T17:07:45.205Z,68.49
2019-01-14T17:10:17.095Z,68.71
2019-01-14T17:12:45.860Z,68.22
2019-01-14T17:15:14.856Z,67.78
2019-01-14T17:17:43.543Z,67.30
2019-01-14T17:20:17.936Z,67.55
2019-01-14T17:22:46.828Z,68.08
2019-01-14T17:25:15.835Z,68.32
2019-01-14T17:27:45.364Z,68.61
2019-01-14T17:30:16.578Z,69.05
2019-01-14T17:32:45.278Z,68.33
2019-01-14T17:35:15.170Z,69.40
2019-01-14T17:37:43.955Z,71.12
2019-01-14T17:40:16.298Z,73.19
2019-01-14T17:42:45.518Z,73.45
2019-01-14T17:45:14.314Z,73.57
2019-01-14T17:47:43.210Z,73.57
2019-01-14T17:50:14.351Z,72.92
2019-01-14T17:52:43.039Z,72.52
2019-01-14T17:55:11.821Z,72.38
2019-01-14T17:57:40.579Z,72.54
2019-01-14T18:00:15.280Z,71.90
2019-01-14T18:02:46.099Z,71.45
2019-01-14T18:05:14.891Z,70.70
2019-01-14T18:07:43.577Z,69.92
2019-01-14T18:10:14.902Z,69.52
2019-01-14T18:12:43.698Z,69.19
2019-01-14T18:15:12.780Z,69.48
2019-01-14T18:17:41.525Z,70.12
2019-01-14T18:20:15.686Z,70.08
2019-01-14T18:22:44.385Z,70.71
2019-01-14T18:25:13.425Z,70.79
2019-01-14T18:27:42.125Z,70.66
2019-01-14T18:30:13.687Z,70.65
2019-01-14T18:32:42.455Z,70.33
2019-01-14T18:35:11.145Z,71.04
2019-01-14T18:37:39.830Z,71.23
2019-01-14T18:40:11.619Z,70.86
2019-01-14T18:42:40.299Z,71.10
2019-01-14T18:45:11.896Z,71.54
2019-01-14T18:47:40.642Z,71.55
2019-01-14T18:50:12.334Z,71.13
2019-01-14T18:52:41.042Z,71.25
2019-01-14T18:55:09.889Z,71.64
2019-01-14T18:57:38.689Z,72.45
2019-01-14T19:00:13.392Z,73.46
2019-01-14T19:02:42.209Z,73.72
2019-01-14T19:05:10.997Z,73.59
2019-01-14T19:07:39.732Z,73.98
2019-01-14T19:10:10.677Z,74.14
2019-01-14T19:12:39.362Z,73.98
2019-01-14T19:15:16.567Z,74.38
2019-01-14T19:17:45.856Z,74.40
2019-01-14T19:20:23.038Z,73.82
2019-01-14T19:22:52.034Z,73.98
2019-01-14T19:25:20.728Z,74.38
2019-01-14T19:27:49.545Z,74.22
2019-01-14T19:30:20.528Z,74.31
2019-01-14T19:32:49.210Z,74.26
2019-01-14T19:35:18.279Z,74.67
2019-01-14T19:37:47.076Z,74.41
2019-01-14T19:40:17.974Z,74.52
2019-01-14T19:42:47.057Z,74.51
2019-01-14T19:45:18.180Z,74.84
2019-01-14T19:47:47.070Z,74.87
2019-01-14T19:50:18.132Z,74.86
2019-01-14T19:52:46.918Z,75.06
2019-01-14T19:55:15.609Z,75.30
2019-01-14T19:57:44.803Z,75.27
2019-01-14T20:00:22.326Z,75.92
2019-01-14T20:02:51.178Z,76.07
2019-01-14T20:05:19.866Z,75.76
2019-01-14T20:07:49.935Z,75.73
2019-01-14T20:10:19.217Z,76.00
2019-01-14T20:12:48.050Z,75.97
2019-01-14T20:15:18.950Z,75.76
2019-01-14T20:17:47.990Z,75.89
2019-01-14T20:20:16.889Z,75.81
2019-01-14T20:22:45.580Z,75.38
2019-01-14T20:25:14.451Z,75.09
2019-01-14T20:27:43.133Z,75.22
2019-01-14T20:30:14.930Z,75.08
2019-01-14T20:32:43.780Z,75.46
2019-01-14T20:35:12.471Z,75.29
2019-01-14T20:37:42.716Z,75.13
2019-01-14T20:40:16.383Z,74.50
2019-01-14T20:42:45.173Z,74.59
2019-01-14T20:45:15.936Z,74.98
2019-01-14T20:47:44.888Z,75.24
2019-01-14T20:50:18.483Z,76.13
2019-01-14T20:52:47.171Z,75.96
2019-01-14T20:55:15.912Z,76.52
2019-01-14T20:57:44.612Z,76.79
2019-01-14T21:00:19.098Z,76.99
2019-01-14T21:02:47.838Z,77.01
2019-01-14T21:05:17.223Z,76.42
2019-01-14T21:07:45.900Z,76.00
2019-01-14T21:10:16.160Z,75.79
2019-01-14T21:12:45.009Z,76.29
2019-01-14T21:15:14.131Z,76.97
2019-01-14T21:17:50.260Z,77.37
2019-01-14T21:20:38.704Z,77.40
2019-01-14T21:23:07.529Z,77.76
2019-01-14T21:25:36.210Z,77.40
2019-01-14T21:28:18.144Z,77.04
2019-01-14T21:30:52.934Z,77.10
2019-01-14T21:33:24.799Z,76.78
2019-01-14T21:36:00.186Z,77.15
2019-01-14T21:38:38.308Z,77.71
2019-01-14T21:41:07.194Z,77.66
2019-01-14T21:43:49.195Z,77.13
2019-01-14T21:46:17.881Z,76.87
2019-01-14T21:48:46.771Z,77.49
2019-01-14T21:51:15.869Z,77.47
2019-01-14T21:53:44.722Z,78.13
2019-01-14T21:56:13.409Z,78.28
2019-01-14T21:58:42.255Z,78.56
2019-01-14T22:01:10.943Z,79.01
2019-01-14T22:03:39.634Z,79.20
2019-01-14T22:06:08.907Z,79.00
2019-01-14T22:08:37.604Z,79.13
2019-01-14T22:11:06.280Z,78.87
2019-01-14T22:13:44.573Z,79.61
2019-01-14T22:16:19.012Z,79.28
2019-01-14T22:18:52.801Z,79.18
2019-01-14T22:21:32.571Z,79.75
2019-01-14T22:24:02.661Z,79.60
2019-01-14T22:26:39.704Z,79.38
2019-01-14T22:29:14.004Z,79.94
2019-01-14T22:31:47.138Z,80.12
2019-01-14T22:34:22.112Z,80.09
2019-01-14T22:36:50.796Z,80.14
2019-01-14T22:39:19.476Z,80.23
2019-01-14T22:41:48.234Z,79.87
2019-01-14T22:44:16.910Z,80.38
2019-01-14T22:46:45.597Z,79.85
2019-01-14T22:49:14.531Z,80.17
2019-01-14T22:51:43.221Z,80.31
2019-01-14T22:54:11.901Z,79.74
2019-01-14T22:56:40.657Z,79.53
2019-01-14T22:59:09.353Z,80.18
2019-01-14T23:01:38.121Z,79.91
2019-01-14T23:04:06.872Z,79.46
2019-01-14T23:06:35.552Z,79.68
2019-01-14T23:09:06.291Z,80.21
2019-01-14T23:11:35.090Z,79.96
2019-01-14T23:14:03.790Z,80.68
2019-01-14T23:16:32.481Z,80.98
2019-01-14T23:19:01.283Z,81.01
2019-01-14T23:21:29.984Z,81.33
2019-01-14T23:23:58.669Z,79.97
2019-01-14T23:26:27.554Z,79.44
2019-01-14T23:28:56.235Z,79.83
2019-01-14T23:31:25.018Z,80.22
2019-01-14T23:33:53.737Z,78.60
2019-01-14T23:36:22.415Z,75.68
2019-01-14T23:38:51.098Z,73.46
2019-01-14T23:41:19.952Z,73.12
2019-01-14T23:43:48.633Z,73.54
2019-01-14T23:46:17.314Z,73.51
2019-01-14T23:48:46.344Z,73.67
2019-01-14T23:51:15.025Z,72.31
2019-01-14T23:53:43.692Z,71.21
2019-01-14T23:56:12.444Z,70.62
2019-01-14T23:58:41.130Z,68.89
